KBGE/BGE METAR and TAF weather

Enter ICAO airport designator
Station Type Date Time Source
KBGE METAR 2019/08/22 08:55 UTC NOAA

KBGE 220855Z AUTO 00000KT 10SM CLR 24/23 A3004 RMK AO2 T02370231


Station Type Date Time Source
KBGE Decoded METAR 2019/08/22 08:55 UTC NOAA

Station name not available
Aug 22, 2019 - 04:55 AM EDT / 2019.08.22 0855 UTC
Wind: Calm:0
Visibility: 10 mile(s):0
Sky conditions: clear
Temperature: 74.7 F (23.7 C)
Dew Point: 73.6 F (23.1 C)
Relative Humidity: 96%
Pressure (altimeter): 30.04 in. Hg (1017 hPa)
ob: KBGE 220855Z AUTO 00000KT 10SM CLR 24/23 A3004 RMK AO2 T02370231
cycle: 9

Station Type Date Time Source
KBGE TAF UTC NOAA

Error!

Example: see airport list